sensor_id;sensor_type;location;lat;lon;timestamp;P1;durP1;ratioP1;P2;durP2;ratioP2
8871;SDS011;4472;52.092;9.820;2022-08-25T00:02:02;5.57;;;4.17;;
8871;SDS011;4472;52.092;9.820;2022-08-25T00:04:52;5.70;;;4.33;;
8871;SDS011;4472;52.092;9.820;2022-08-25T00:07:39;6.23;;;4.67;;
8871;SDS011;4472;52.092;9.820;2022-08-25T00:10:27;5.43;;;4.30;;
8871;SDS011;4472;52.092;9.820;2022-08-25T00:13:14;7.50;;;4.70;;
8871;SDS011;4472;52.092;9.820;2022-08-25T00:16:02;8.13;;;4.73;;
8871;SDS011;4472;52.092;9.820;2022-08-25T00:18:50;7.87;;;4.47;;
8871;SDS011;4472;52.092;9.820;2022-08-25T00:21:43;5.53;;;4.60;;
8871;SDS011;4472;52.092;9.820;2022-08-25T00:24:30;5.67;;;4.40;;
8871;SDS011;4472;52.092;9.820;2022-08-25T00:27:18;7.43;;;5.00;;
8871;SDS011;4472;52.092;9.820;2022-08-25T00:30:06;5.07;;;4.00;;
8871;SDS011;4472;52.092;9.820;2022-08-25T00:32:54;7.57;;;4.63;;
8871;SDS011;4472;52.092;9.820;2022-08-25T00:35:42;7.83;;;4.93;;
8871;SDS011;4472;52.092;9.820;2022-08-25T00:38:31;4.67;;;4.10;;
8871;SDS011;4472;52.092;9.820;2022-08-25T00:41:20;5.47;;;4.17;;
8871;SDS011;4472;52.092;9.820;2022-08-25T00:44:09;8.37;;;4.57;;
8871;SDS011;4472;52.092;9.820;2022-08-25T00:46:58;5.70;;;4.73;;
8871;SDS011;4472;52.092;9.820;2022-08-25T00:49:47;8.47;;;5.13;;
8871;SDS011;4472;52.092;9.820;2022-08-25T00:52:37;9.03;;;5.43;;
8871;SDS011;4472;52.092;9.820;2022-08-25T00:55:27;5.17;;;4.67;;
8871;SDS011;4472;52.092;9.820;2022-08-25T00:58:15;6.67;;;5.00;;
8871;SDS011;4472;52.092;9.820;2022-08-25T01:01:04;6.20;;;5.60;;
8871;SDS011;4472;52.092;9.820;2022-08-25T01:03:52;7.50;;;4.77;;
8871;SDS011;4472;52.092;9.820;2022-08-25T01:06:40;7.10;;;5.30;;
8871;SDS011;4472;52.092;9.820;2022-08-25T01:09:29;9.43;;;5.13;;
8871;SDS011;4472;52.092;9.820;2022-08-25T01:12:18;6.07;;;5.03;;
8871;SDS011;4472;52.092;9.820;2022-08-25T01:15:07;7.83;;;4.83;;
8871;SDS011;4472;52.092;9.820;2022-08-25T01:17:55;6.93;;;5.30;;
8871;SDS011;4472;52.092;9.820;2022-08-25T01:20:47;7.03;;;4.80;;
8871;SDS011;4472;52.092;9.820;2022-08-25T01:23:35;6.37;;;4.80;;
8871;SDS011;4472;52.092;9.820;2022-08-25T01:26:23;7.77;;;5.17;;
8871;SDS011;4472;52.092;9.820;2022-08-25T01:29:11;6.20;;;5.60;;
8871;SDS011;4472;52.092;9.820;2022-08-25T01:32:10;6.63;;;4.80;;
8871;SDS011;4472;52.092;9.820;2022-08-25T01:34:58;5.93;;;4.93;;
8871;SDS011;4472;52.092;9.820;2022-08-25T01:37:47;9.37;;;5.30;;
8871;SDS011;4472;52.092;9.820;2022-08-25T01:40:35;14.87;;;5.80;;
8871;SDS011;4472;52.092;9.820;2022-08-25T01:43:25;6.43;;;5.23;;
8871;SDS011;4472;52.092;9.820;2022-08-25T01:46:16;6.10;;;5.20;;
8871;SDS011;4472;52.092;9.820;2022-08-25T01:49:04;6.27;;;5.17;;
8871;SDS011;4472;52.092;9.820;2022-08-25T01:51:52;9.47;;;5.17;;
8871;SDS011;4472;52.092;9.820;2022-08-25T01:54:43;8.27;;;5.80;;
8871;SDS011;4472;52.092;9.820;2022-08-25T01:57:30;11.63;;;6.07;;
8871;SDS011;4472;52.092;9.820;2022-08-25T02:00:18;7.27;;;5.83;;
8871;SDS011;4472;52.092;9.820;2022-08-25T02:03:06;7.23;;;5.50;;
8871;SDS011;4472;52.092;9.820;2022-08-25T02:05:54;8.97;;;6.00;;
8871;SDS011;4472;52.092;9.820;2022-08-25T02:08:42;8.00;;;5.70;;
8871;SDS011;4472;52.092;9.820;2022-08-25T02:11:32;7.70;;;5.33;;
8871;SDS011;4472;52.092;9.820;2022-08-25T02:14:20;6.60;;;5.50;;
8871;SDS011;4472;52.092;9.820;2022-08-25T02:17:07;7.93;;;5.80;;
8871;SDS011;4472;52.092;9.820;2022-08-25T02:19:55;6.90;;;5.53;;
8871;SDS011;4472;52.092;9.820;2022-08-25T02:22:43;10.73;;;5.40;;
8871;SDS011;4472;52.092;9.820;2022-08-25T02:25:30;12.43;;;6.47;;
8871;SDS011;4472;52.092;9.820;2022-08-25T02:28:19;7.93;;;6.10;;
8871;SDS011;4472;52.092;9.820;2022-08-25T02:31:07;7.03;;;6.33;;
8871;SDS011;4472;52.092;9.820;2022-08-25T02:33:55;7.13;;;5.73;;
8871;SDS011;4472;52.092;9.820;2022-08-25T02:36:42;10.43;;;5.70;;
8871;SDS011;4472;52.092;9.820;2022-08-25T02:39:30;8.97;;;6.40;;
8871;SDS011;4472;52.092;9.820;2022-08-25T02:42:17;7.40;;;6.57;;
8871;SDS011;4472;52.092;9.820;2022-08-25T02:45:08;8.27;;;6.20;;
8871;SDS011;4472;52.092;9.820;2022-08-25T02:47:55;7.43;;;6.33;;
8871;SDS011;4472;52.092;9.820;2022-08-25T02:50:45;9.93;;;6.30;;
8871;SDS011;4472;52.092;9.820;2022-08-25T02:53:32;7.67;;;6.20;;
8871;SDS011;4472;52.092;9.820;2022-08-25T02:56:20;7.00;;;6.10;;
8871;SDS011;4472;52.092;9.820;2022-08-25T02:59:08;7.10;;;6.13;;
8871;SDS011;4472;52.092;9.820;2022-08-25T03:01:57;10.73;;;6.27;;
8871;SDS011;4472;52.092;9.820;2022-08-25T03:04:45;8.13;;;6.33;;
8871;SDS011;4472;52.092;9.820;2022-08-25T03:07:33;7.80;;;6.47;;
8871;SDS011;4472;52.092;9.820;2022-08-25T03:10:22;9.40;;;6.77;;
8871;SDS011;4472;52.092;9.820;2022-08-25T03:13:10;9.17;;;6.53;;
8871;SDS011;4472;52.092;9.820;2022-08-25T03:15:57;8.43;;;6.80;;
8871;SDS011;4472;52.092;9.820;2022-08-25T03:18:46;11.00;;;6.83;;
8871;SDS011;4472;52.092;9.820;2022-08-25T03:21:33;7.87;;;6.40;;
8871;SDS011;4472;52.092;9.820;2022-08-25T03:24:22;8.30;;;5.90;;
8871;SDS011;4472;52.092;9.820;2022-08-25T03:27:09;9.70;;;7.43;;
8871;SDS011;4472;52.092;9.820;2022-08-25T03:29:56;8.40;;;6.63;;
8871;SDS011;4472;52.092;9.820;2022-08-25T03:32:43;10.77;;;6.77;;
8871;SDS011;4472;52.092;9.820;2022-08-25T03:35:32;7.30;;;6.60;;
8871;SDS011;4472;52.092;9.820;2022-08-25T03:38:20;9.13;;;6.83;;
8871;SDS011;4472;52.092;9.820;2022-08-25T03:41:12;14.57;;;6.97;;
8871;SDS011;4472;52.092;9.820;2022-08-25T03:44:00;9.63;;;6.97;;
8871;SDS011;4472;52.092;9.820;2022-08-25T03:46:49;13.03;;;7.00;;
8871;SDS011;4472;52.092;9.820;2022-08-25T03:49:37;10.10;;;7.23;;
8871;SDS011;4472;52.092;9.820;2022-08-25T03:52:26;8.73;;;7.30;;
8871;SDS011;4472;52.092;9.820;2022-08-25T03:55:14;10.60;;;6.67;;
8871;SDS011;4472;52.092;9.820;2022-08-25T03:58:02;7.40;;;6.70;;
8871;SDS011;4472;52.092;9.820;2022-08-25T04:00:49;8.73;;;7.37;;
8871;SDS011;4472;52.092;9.820;2022-08-25T04:03:37;10.90;;;7.17;;
8871;SDS011;4472;52.092;9.820;2022-08-25T04:06:24;7.60;;;6.80;;
8871;SDS011;4472;52.092;9.820;2022-08-25T04:09:13;8.73;;;7.20;;
8871;SDS011;4472;52.092;9.820;2022-08-25T04:12:01;10.80;;;7.30;;
8871;SDS011;4472;52.092;9.820;2022-08-25T04:14:49;8.77;;;7.07;;
8871;SDS011;4472;52.092;9.820;2022-08-25T04:17:37;12.97;;;7.03;;
8871;SDS011;4472;52.092;9.820;2022-08-25T04:20:25;8.83;;;7.27;;
8871;SDS011;4472;52.092;9.820;2022-08-25T04:23:12;9.13;;;7.23;;
8871;SDS011;4472;52.092;9.820;2022-08-25T04:26:01;9.47;;;7.43;;
8871;SDS011;4472;52.092;9.820;2022-08-25T04:28:50;8.73;;;7.03;;
8871;SDS011;4472;52.092;9.820;2022-08-25T04:31:38;8.13;;;7.07;;
8871;SDS011;4472;52.092;9.820;2022-08-25T04:34:26;7.63;;;6.83;;
8871;SDS011;4472;52.092;9.820;2022-08-25T04:37:13;11.70;;;6.97;;
8871;SDS011;4472;52.092;9.820;2022-08-25T04:40:01;12.03;;;7.00;;
8871;SDS011;4472;52.092;9.820;2022-08-25T04:42:50;9.23;;;7.77;;
8871;SDS011;4472;52.092;9.820;2022-08-25T04:45:38;7.33;;;6.63;;
8871;SDS011;4472;52.092;9.820;2022-08-25T04:48:25;12.27;;;7.67;;
8871;SDS011;4472;52.092;9.820;2022-08-25T04:51:14;10.43;;;7.57;;
8871;SDS011;4472;52.092;9.820;2022-08-25T04:54:03;11.90;;;7.57;;
8871;SDS011;4472;52.092;9.820;2022-08-25T04:56:50;14.00;;;7.60;;
8871;SDS011;4472;52.092;9.820;2022-08-25T04:59:39;9.83;;;7.40;;
8871;SDS011;4472;52.092;9.820;2022-08-25T05:02:27;10.33;;;7.63;;
8871;SDS011;4472;52.092;9.820;2022-08-25T05:05:15;10.93;;;8.17;;
8871;SDS011;4472;52.092;9.820;2022-08-25T05:08:02;15.27;;;7.47;;
8871;SDS011;4472;52.092;9.820;2022-08-25T05:10:50;10.30;;;7.50;;
8871;SDS011;4472;52.092;9.820;2022-08-25T05:13:39;10.37;;;7.80;;
8871;SDS011;4472;52.092;9.820;2022-08-25T05:16:28;10.63;;;7.70;;
8871;SDS011;4472;52.092;9.820;2022-08-25T05:19:16;11.67;;;7.57;;
8871;SDS011;4472;52.092;9.820;2022-08-25T05:22:05;9.57;;;7.47;;
8871;SDS011;4472;52.092;9.820;2022-08-25T05:24:53;10.77;;;7.27;;
8871;SDS011;4472;52.092;9.820;2022-08-25T05:27:40;12.87;;;7.63;;
8871;SDS011;4472;52.092;9.820;2022-08-25T05:30:28;11.17;;;7.80;;
8871;SDS011;4472;52.092;9.820;2022-08-25T05:33:17;11.80;;;7.97;;
8871;SDS011;4472;52.092;9.820;2022-08-25T05:36:05;10.00;;;7.27;;
8871;SDS011;4472;52.092;9.820;2022-08-25T05:38:52;9.27;;;7.70;;
8871;SDS011;4472;52.092;9.820;2022-08-25T05:41:40;11.27;;;8.60;;
8871;SDS011;4472;52.092;9.820;2022-08-25T05:44:27;9.90;;;7.83;;
8871;SDS011;4472;52.092;9.820;2022-08-25T05:47:15;11.87;;;8.67;;
8871;SDS011;4472;52.092;9.820;2022-08-25T05:50:05;14.50;;;8.23;;
8871;SDS011;4472;52.092;9.820;2022-08-25T05:52:53;9.60;;;8.23;;
8871;SDS011;4472;52.092;9.820;2022-08-25T05:55:42;9.70;;;7.90;;
8871;SDS011;4472;52.092;9.820;2022-08-25T05:58:30;11.67;;;8.23;;
8871;SDS011;4472;52.092;9.820;2022-08-25T06:01:18;14.17;;;8.10;;
8871;SDS011;4472;52.092;9.820;2022-08-25T06:04:24;11.53;;;8.50;;
8871;SDS011;4472;52.092;9.820;2022-08-25T06:07:13;12.70;;;8.30;;
8871;SDS011;4472;52.092;9.820;2022-08-25T06:10:01;10.60;;;7.77;;
8871;SDS011;4472;52.092;9.820;2022-08-25T06:12:48;12.37;;;8.00;;
8871;SDS011;4472;52.092;9.820;2022-08-25T06:15:36;11.73;;;8.40;;
8871;SDS011;4472;52.092;9.820;2022-08-25T06:18:23;10.37;;;7.73;;
8871;SDS011;4472;52.092;9.820;2022-08-25T06:21:11;12.03;;;8.17;;
8871;SDS011;4472;52.092;9.820;2022-08-25T06:24:00;8.93;;;7.67;;
8871;SDS011;4472;52.092;9.820;2022-08-25T06:26:48;10.73;;;7.67;;
8871;SDS011;4472;52.092;9.820;2022-08-25T06:29:36;12.83;;;7.63;;
8871;SDS011;4472;52.092;9.820;2022-08-25T06:32:23;9.70;;;7.40;;
8871;SDS011;4472;52.092;9.820;2022-08-25T06:35:15;11.63;;;8.20;;
8871;SDS011;4472;52.092;9.820;2022-08-25T06:38:03;12.73;;;7.20;;
8871;SDS011;4472;52.092;9.820;2022-08-25T06:40:52;10.67;;;7.73;;
8871;SDS011;4472;52.092;9.820;2022-08-25T06:43:42;13.60;;;7.53;;
8871;SDS011;4472;52.092;9.820;2022-08-25T06:46:30;11.27;;;7.50;;
8871;SDS011;4472;52.092;9.820;2022-08-25T06:49:17;11.93;;;7.80;;
8871;SDS011;4472;52.092;9.820;2022-08-25T06:52:05;8.70;;;7.03;;
8871;SDS011;4472;52.092;9.820;2022-08-25T06:54:52;9.67;;;7.30;;
8871;SDS011;4472;52.092;9.820;2022-08-25T06:57:41;12.87;;;7.40;;
8871;SDS011;4472;52.092;9.820;2022-08-25T07:00:29;8.40;;;6.93;;
8871;SDS011;4472;52.092;9.820;2022-08-25T07:03:16;10.73;;;6.90;;
8871;SDS011;4472;52.092;9.820;2022-08-25T07:06:04;11.67;;;7.60;;
8871;SDS011;4472;52.092;9.820;2022-08-25T07:08:52;9.90;;;7.60;;
8871;SDS011;4472;52.092;9.820;2022-08-25T07:11:40;8.63;;;7.10;;
8871;SDS011;4472;52.092;9.820;2022-08-25T07:14:29;9.53;;;6.50;;
8871;SDS011;4472;52.092;9.820;2022-08-25T07:17:16;9.20;;;7.40;;
8871;SDS011;4472;52.092;9.820;2022-08-25T07:20:05;12.27;;;7.10;;
8871;SDS011;4472;52.092;9.820;2022-08-25T07:22:52;11.93;;;7.47;;
8871;SDS011;4472;52.092;9.820;2022-08-25T07:25:40;14.17;;;7.00;;
8871;SDS011;4472;52.092;9.820;2022-08-25T07:28:27;9.97;;;6.97;;
8871;SDS011;4472;52.092;9.820;2022-08-25T07:31:16;10.00;;;7.43;;
8871;SDS011;4472;52.092;9.820;2022-08-25T07:34:04;10.43;;;7.50;;
8871;SDS011;4472;52.092;9.820;2022-08-25T07:37:09;9.20;;;7.60;;
8871;SDS011;4472;52.092;9.820;2022-08-25T07:39:56;12.43;;;7.30;;
8871;SDS011;4472;52.092;9.820;2022-08-25T07:42:48;11.97;;;7.77;;
8871;SDS011;4472;52.092;9.820;2022-08-25T07:45:37;11.43;;;7.33;;
8871;SDS011;4472;52.092;9.820;2022-08-25T07:48:26;8.03;;;7.23;;
8871;SDS011;4472;52.092;9.820;2022-08-25T07:51:13;9.27;;;7.37;;
8871;SDS011;4472;52.092;9.820;2022-08-25T07:54:01;10.30;;;7.43;;
8871;SDS011;4472;52.092;9.820;2022-08-25T07:56:50;11.10;;;7.47;;
8871;SDS011;4472;52.092;9.820;2022-08-25T07:59:38;10.73;;;7.20;;
8871;SDS011;4472;52.092;9.820;2022-08-25T08:02:26;12.33;;;7.03;;
8871;SDS011;4472;52.092;9.820;2022-08-25T08:05:15;12.90;;;7.20;;
8871;SDS011;4472;52.092;9.820;2022-08-25T08:08:03;11.07;;;7.33;;
8871;SDS011;4472;52.092;9.820;2022-08-25T08:10:50;9.73;;;7.50;;
8871;SDS011;4472;52.092;9.820;2022-08-25T08:13:38;10.63;;;8.40;;
8871;SDS011;4472;52.092;9.820;2022-08-25T08:16:26;10.50;;;8.03;;
8871;SDS011;4472;52.092;9.820;2022-08-25T08:19:14;12.13;;;7.53;;
8871;SDS011;4472;52.092;9.820;2022-08-25T08:22:03;13.60;;;8.10;;
8871;SDS011;4472;52.092;9.820;2022-08-25T08:24:51;16.53;;;8.60;;
8871;SDS011;4472;52.092;9.820;2022-08-25T08:27:39;11.50;;;8.17;;
8871;SDS011;4472;52.092;9.820;2022-08-25T08:30:29;11.23;;;8.30;;
8871;SDS011;4472;52.092;9.820;2022-08-25T08:33:16;11.93;;;8.70;;
8871;SDS011;4472;52.092;9.820;2022-08-25T08:36:05;12.60;;;8.80;;
8871;SDS011;4472;52.092;9.820;2022-08-25T08:38:54;12.17;;;8.47;;
8871;SDS011;4472;52.092;9.820;2022-08-25T08:41:45;16.50;;;9.67;;
8871;SDS011;4472;52.092;9.820;2022-08-25T08:44:57;13.63;;;8.53;;
8871;SDS011;4472;52.092;9.820;2022-08-25T08:47:49;14.67;;;8.20;;
8871;SDS011;4472;52.092;9.820;2022-08-25T08:50:42;15.63;;;8.87;;
8871;SDS011;4472;52.092;9.820;2022-08-25T08:53:31;10.67;;;8.40;;
8871;SDS011;4472;52.092;9.820;2022-08-25T08:56:25;12.80;;;8.50;;
8871;SDS011;4472;52.092;9.820;2022-08-25T08:59:15;12.17;;;9.17;;
8871;SDS011;4472;52.092;9.820;2022-08-25T09:02:07;12.30;;;8.73;;
8871;SDS011;4472;52.092;9.820;2022-08-25T09:04:59;13.63;;;8.17;;
8871;SDS011;4472;52.092;9.820;2022-08-25T09:07:48;15.87;;;9.30;;
8871;SDS011;4472;52.092;9.820;2022-08-25T09:10:38;11.90;;;9.10;;
8871;SDS011;4472;52.092;9.820;2022-08-25T09:13:31;11.40;;;8.80;;
8871;SDS011;4472;52.092;9.820;2022-08-25T09:16:23;16.77;;;9.50;;
8871;SDS011;4472;52.092;9.820;2022-08-25T09:19:44;10.77;;;7.93;;
8871;SDS011;4472;52.092;9.820;2022-08-25T09:22:40;13.90;;;9.07;;
8871;SDS011;4472;52.092;9.820;2022-08-25T09:25:31;13.20;;;8.17;;
8871;SDS011;4472;52.092;9.820;2022-08-25T09:28:24;14.07;;;8.60;;
8871;SDS011;4472;52.092;9.820;2022-08-25T09:31:16;12.83;;;8.90;;
8871;SDS011;4472;52.092;9.820;2022-08-25T09:34:06;12.83;;;9.53;;
8871;SDS011;4472;52.092;9.820;2022-08-25T09:36:54;13.30;;;8.80;;
8871;SDS011;4472;52.092;9.820;2022-08-25T09:39:41;12.33;;;7.70;;
8871;SDS011;4472;52.092;9.820;2022-08-25T09:42:44;12.13;;;8.00;;
8871;SDS011;4472;52.092;9.820;2022-08-25T09:45:36;8.83;;;6.33;;
8871;SDS011;4472;52.092;9.820;2022-08-25T09:48:28;14.83;;;8.60;;
8871;SDS011;4472;52.092;9.820;2022-08-25T09:51:23;15.63;;;9.43;;
8871;SDS011;4472;52.092;9.820;2022-08-25T09:54:15;11.23;;;8.37;;
8871;SDS011;4472;52.092;9.820;2022-08-25T09:57:05;10.77;;;8.00;;
8871;SDS011;4472;52.092;9.820;2022-08-25T09:59:52;12.97;;;8.63;;
8871;SDS011;4472;52.092;9.820;2022-08-25T10:02:43;12.63;;;8.23;;
8871;SDS011;4472;52.092;9.820;2022-08-25T10:05:34;10.50;;;7.77;;
8871;SDS011;4472;52.092;9.820;2022-08-25T10:08:25;17.23;;;8.17;;
8871;SDS011;4472;52.092;9.820;2022-08-25T10:11:28;18.20;;;8.47;;
8871;SDS011;4472;52.092;9.820;2022-08-25T10:14:20;16.90;;;8.45;;
8871;SDS011;4472;52.092;9.820;2022-08-25T10:17:12;12.15;;;7.53;;
8871;SDS011;4472;52.092;9.820;2022-08-25T10:23:09;13.85;;;7.25;;
8871;SDS011;4472;52.092;9.820;2022-08-25T10:25:57;13.95;;;7.60;;
8871;SDS011;4472;52.092;9.820;2022-08-25T10:28:52;12.23;;;7.15;;
8871;SDS011;4472;52.092;9.820;2022-08-25T10:31:47;10.60;;;7.60;;
8871;SDS011;4472;52.092;9.820;2022-08-25T10:34:43;10.15;;;8.40;;
8871;SDS011;4472;52.092;9.820;2022-08-25T10:37:45;14.93;;;8.60;;
8871;SDS011;4472;52.092;9.820;2022-08-25T10:40:44;10.90;;;8.23;;
8871;SDS011;4472;52.092;9.820;2022-08-25T10:43:37;13.65;;;8.82;;
8871;SDS011;4472;52.092;9.820;2022-08-25T10:46:31;13.73;;;8.10;;
8871;SDS011;4472;52.092;9.820;2022-08-25T10:49:26;13.38;;;7.95;;
8871;SDS011;4472;52.092;9.820;2022-08-25T10:52:20;12.55;;;7.85;;
8871;SDS011;4472;52.092;9.820;2022-08-25T10:55:16;14.20;;;8.70;;
8871;SDS011;4472;52.092;9.820;2022-08-25T10:58:10;10.48;;;7.75;;
8871;SDS011;4472;52.092;9.820;2022-08-25T11:01:07;10.93;;;7.80;;
8871;SDS011;4472;52.092;9.820;2022-08-25T11:03:59;13.00;;;7.30;;
8871;SDS011;4472;52.092;9.820;2022-08-25T11:06:53;13.57;;;7.85;;
8871;SDS011;4472;52.092;9.820;2022-08-25T11:09:44;11.25;;;7.25;;
8871;SDS011;4472;52.092;9.820;2022-08-25T11:12:37;15.32;;;7.75;;
8871;SDS011;4472;52.092;9.820;2022-08-25T11:15:28;8.00;;;6.93;;
8871;SDS011;4472;52.092;9.820;2022-08-25T11:18:21;13.77;;;6.72;;
8871;SDS011;4472;52.092;9.820;2022-08-25T11:21:12;13.77;;;7.60;;
8871;SDS011;4472;52.092;9.820;2022-08-25T11:24:06;12.27;;;7.05;;
8871;SDS011;4472;52.092;9.820;2022-08-25T11:27:04;10.15;;;7.28;;
8871;SDS011;4472;52.092;9.820;2022-08-25T11:29:57;13.95;;;7.22;;
8871;SDS011;4472;52.092;9.820;2022-08-25T11:32:50;13.18;;;7.20;;
8871;SDS011;4472;52.092;9.820;2022-08-25T11:35:40;14.02;;;7.10;;
8871;SDS011;4472;52.092;9.820;2022-08-25T11:38:37;12.95;;;7.03;;
8871;SDS011;4472;52.092;9.820;2022-08-25T11:41:34;13.75;;;7.32;;
8871;SDS011;4472;52.092;9.820;2022-08-25T11:47:44;12.55;;;6.95;;
8871;SDS011;4472;52.092;9.820;2022-08-25T11:50:55;8.82;;;6.95;;
8871;SDS011;4472;52.092;9.820;2022-08-25T11:53:45;13.15;;;7.05;;
8871;SDS011;4472;52.092;9.820;2022-08-25T11:56:34;13.02;;;7.32;;
8871;SDS011;4472;52.092;9.820;2022-08-25T12:02:47;10.63;;;7.28;;
8871;SDS011;4472;52.092;9.820;2022-08-25T12:05:51;13.90;;;6.97;;
8871;SDS011;4472;52.092;9.820;2022-08-25T12:09:19;12.68;;;7.07;;
8871;SDS011;4472;52.092;9.820;2022-08-25T12:15:19;15.98;;;7.40;;
8871;SDS011;4472;52.092;9.820;2022-08-25T12:18:09;13.10;;;7.05;;
8871;SDS011;4472;52.092;9.820;2022-08-25T12:21:14;9.10;;;6.13;;
8871;SDS011;4472;52.092;9.820;2022-08-25T12:24:15;11.77;;;6.68;;
8871;SDS011;4472;52.092;9.820;2022-08-25T12:27:07;7.95;;;6.13;;
8871;SDS011;4472;52.092;9.820;2022-08-25T12:30:10;11.88;;;7.32;;
8871;SDS011;4472;52.092;9.820;2022-08-25T12:33:04;13.45;;;6.85;;
8871;SDS011;4472;52.092;9.820;2022-08-25T12:35:58;8.18;;;6.18;;
8871;SDS011;4472;52.092;9.820;2022-08-25T12:38:47;16.33;;;7.45;;
8871;SDS011;4472;52.092;9.820;2022-08-25T12:41:38;12.05;;;6.70;;
8871;SDS011;4472;52.092;9.820;2022-08-25T12:44:41;16.67;;;7.05;;
8871;SDS011;4472;52.092;9.820;2022-08-25T12:47:31;9.18;;;6.38;;
8871;SDS011;4472;52.092;9.820;2022-08-25T12:50:29;10.45;;;6.75;;
8871;SDS011;4472;52.092;9.820;2022-08-25T12:53:23;6.57;;;5.90;;
8871;SDS011;4472;52.092;9.820;2022-08-25T12:56:24;10.30;;;6.60;;
8871;SDS011;4472;52.092;9.820;2022-08-25T12:59:16;12.02;;;6.95;;
8871;SDS011;4472;52.092;9.820;2022-08-25T13:02:11;10.13;;;6.57;;
8871;SDS011;4472;52.092;9.820;2022-08-25T13:05:38;11.65;;;6.28;;
8871;SDS011;4472;52.092;9.820;2022-08-25T13:08:45;12.68;;;6.82;;
8871;SDS011;4472;52.092;9.820;2022-08-25T13:11:55;8.60;;;6.30;;
8871;SDS011;4472;52.092;9.820;2022-08-25T13:14:52;10.70;;;6.47;;
8871;SDS011;4472;52.092;9.820;2022-08-25T13:17:40;13.00;;;6.63;;
8871;SDS011;4472;52.092;9.820;2022-08-25T13:20:28;11.13;;;6.35;;
8871;SDS011;4472;52.092;9.820;2022-08-25T13:23:16;13.05;;;6.70;;
8871;SDS011;4472;52.092;9.820;2022-08-25T13:26:07;10.27;;;6.90;;
8871;SDS011;4472;52.092;9.820;2022-08-25T13:28:57;9.52;;;6.85;;
8871;SDS011;4472;52.092;9.820;2022-08-25T13:31:51;10.50;;;6.72;;
8871;SDS011;4472;52.092;9.820;2022-08-25T13:34:42;7.38;;;5.95;;
8871;SDS011;4472;52.092;9.820;2022-08-25T13:37:29;8.57;;;5.95;;
8871;SDS011;4472;52.092;9.820;2022-08-25T13:40:21;5.43;;;4.93;;
8871;SDS011;4472;52.092;9.820;2022-08-25T13:43:11;12.60;;;6.20;;
8871;SDS011;4472;52.092;9.820;2022-08-25T13:45:59;12.98;;;6.90;;
8871;SDS011;4472;52.092;9.820;2022-08-25T13:48:50;10.98;;;6.82;;
8871;SDS011;4472;52.092;9.820;2022-08-25T13:51:49;14.23;;;6.88;;
8871;SDS011;4472;52.092;9.820;2022-08-25T13:54:39;8.65;;;6.60;;
8871;SDS011;4472;52.092;9.820;2022-08-25T13:57:29;8.15;;;6.18;;
8871;SDS011;4472;52.092;9.820;2022-08-25T14:00:25;10.93;;;6.55;;
8871;SDS011;4472;52.092;9.820;2022-08-25T14:03:28;12.18;;;6.47;;
8871;SDS011;4472;52.092;9.820;2022-08-25T14:06:21;8.55;;;6.25;;
8871;SDS011;4472;52.092;9.820;2022-08-25T14:09:13;12.13;;;5.90;;
8871;SDS011;4472;52.092;9.820;2022-08-25T14:12:03;19.88;;;7.25;;
8871;SDS011;4472;52.092;9.820;2022-08-25T14:14:56;10.70;;;6.68;;
8871;SDS011;4472;52.092;9.820;2022-08-25T14:17:45;9.77;;;6.35;;
8871;SDS011;4472;52.092;9.820;2022-08-25T14:20:45;10.32;;;6.95;;
8871;SDS011;4472;52.092;9.820;2022-08-25T14:23:36;26.92;;;7.75;;
8871;SDS011;4472;52.092;9.820;2022-08-25T14:26:24;26.17;;;8.55;;
8871;SDS011;4472;52.092;9.820;2022-08-25T14:29:12;27.80;;;7.72;;
8871;SDS011;4472;52.092;9.820;2022-08-25T14:32:00;27.58;;;7.88;;
8871;SDS011;4472;52.092;9.820;2022-08-25T14:34:47;10.27;;;6.10;;
8871;SDS011;4472;52.092;9.820;2022-08-25T14:37:35;12.98;;;6.55;;
8871;SDS011;4472;52.092;9.820;2022-08-25T14:40:23;88.35;;;8.85;;
8871;SDS011;4472;52.092;9.820;2022-08-25T14:43:11;9.93;;;6.00;;
8871;SDS011;4472;52.092;9.820;2022-08-25T14:45:59;12.93;;;6.63;;
8871;SDS011;4472;52.092;9.820;2022-08-25T14:48:49;9.02;;;6.28;;
8871;SDS011;4472;52.092;9.820;2022-08-25T14:51:40;8.38;;;5.72;;
8871;SDS011;4472;52.092;9.820;2022-08-25T14:54:28;10.10;;;6.00;;
8871;SDS011;4472;52.092;9.820;2022-08-25T14:57:17;13.50;;;6.65;;
8871;SDS011;4472;52.092;9.820;2022-08-25T15:00:05;8.82;;;6.35;;
8871;SDS011;4472;52.092;9.820;2022-08-25T15:02:54;18.42;;;6.50;;
8871;SDS011;4472;52.092;9.820;2022-08-25T15:05:42;15.45;;;6.50;;
8871;SDS011;4472;52.092;9.820;2022-08-25T15:08:29;10.68;;;5.85;;
8871;SDS011;4472;52.092;9.820;2022-08-25T15:11:31;13.18;;;6.55;;
8871;SDS011;4472;52.092;9.820;2022-08-25T15:14:21;12.88;;;6.63;;
8871;SDS011;4472;52.092;9.820;2022-08-25T15:17:10;14.60;;;6.75;;
8871;SDS011;4472;52.092;9.820;2022-08-25T15:19:58;7.55;;;6.18;;
8871;SDS011;4472;52.092;9.820;2022-08-25T15:22:45;9.18;;;6.70;;
8871;SDS011;4472;52.092;9.820;2022-08-25T15:25:33;21.50;;;7.68;;
8871;SDS011;4472;52.092;9.820;2022-08-25T15:28:20;35.50;;;8.70;;
8871;SDS011;4472;52.092;9.820;2022-08-25T15:31:09;18.90;;;7.63;;
8871;SDS011;4472;52.092;9.820;2022-08-25T15:33:56;12.38;;;6.75;;
8871;SDS011;4472;52.092;9.820;2022-08-25T15:36:44;14.18;;;6.75;;
8871;SDS011;4472;52.092;9.820;2022-08-25T15:39:31;14.82;;;6.28;;
8871;SDS011;4472;52.092;9.820;2022-08-25T15:42:18;8.70;;;6.70;;
8871;SDS011;4472;52.092;9.820;2022-08-25T15:45:06;10.23;;;6.70;;
8871;SDS011;4472;52.092;9.820;2022-08-25T15:47:55;9.02;;;5.93;;
8871;SDS011;4472;52.092;9.820;2022-08-25T15:50:43;15.43;;;6.65;;
8871;SDS011;4472;52.092;9.820;2022-08-25T15:53:31;7.75;;;6.38;;
8871;SDS011;4472;52.092;9.820;2022-08-25T15:56:20;13.55;;;6.53;;
8871;SDS011;4472;52.092;9.820;2022-08-25T15:59:08;15.95;;;6.53;;
8871;SDS011;4472;52.092;9.820;2022-08-25T16:01:57;15.13;;;7.15;;
8871;SDS011;4472;52.092;9.820;2022-08-25T16:04:46;29.88;;;7.20;;
8871;SDS011;4472;52.092;9.820;2022-08-25T16:07:35;22.83;;;7.22;;
8871;SDS011;4472;52.092;9.820;2022-08-25T16:10:22;16.52;;;7.30;;
8871;SDS011;4472;52.092;9.820;2022-08-25T16:13:10;13.20;;;7.25;;
8871;SDS011;4472;52.092;9.820;2022-08-25T16:15:58;13.00;;;6.72;;
8871;SDS011;4472;52.092;9.820;2022-08-25T16:18:45;13.77;;;6.38;;
8871;SDS011;4472;52.092;9.820;2022-08-25T16:21:34;12.02;;;6.90;;
8871;SDS011;4472;52.092;9.820;2022-08-25T16:24:22;13.05;;;6.70;;
8871;SDS011;4472;52.092;9.820;2022-08-25T16:27:10;10.25;;;6.55;;
8871;SDS011;4472;52.092;9.820;2022-08-25T16:29:58;10.40;;;6.50;;
8871;SDS011;4472;52.092;9.820;2022-08-25T16:32:45;19.48;;;6.78;;
8871;SDS011;4472;52.092;9.820;2022-08-25T16:35:33;17.98;;;6.93;;
8871;SDS011;4472;52.092;9.820;2022-08-25T16:38:22;14.52;;;6.47;;
8871;SDS011;4472;52.092;9.820;2022-08-25T16:41:10;10.23;;;6.40;;
8871;SDS011;4472;52.092;9.820;2022-08-25T16:43:58;13.27;;;6.80;;
8871;SDS011;4472;52.092;9.820;2022-08-25T16:46:46;7.45;;;5.70;;
8871;SDS011;4472;52.092;9.820;2022-08-25T16:49:33;15.70;;;6.68;;
8871;SDS011;4472;52.092;9.820;2022-08-25T16:52:21;15.63;;;6.50;;
8871;SDS011;4472;52.092;9.820;2022-08-25T16:55:27;13.65;;;6.47;;
8871;SDS011;4472;52.092;9.820;2022-08-25T16:58:17;17.50;;;6.50;;
8871;SDS011;4472;52.092;9.820;2022-08-25T17:01:04;12.70;;;6.18;;
8871;SDS011;4472;52.092;9.820;2022-08-25T17:03:54;17.77;;;6.40;;
8871;SDS011;4472;52.092;9.820;2022-08-25T17:06:43;12.63;;;5.93;;
8871;SDS011;4472;52.092;9.820;2022-08-25T17:09:31;13.43;;;6.32;;
8871;SDS011;4472;52.092;9.820;2022-08-25T17:12:19;12.85;;;7.10;;
8871;SDS011;4472;52.092;9.820;2022-08-25T17:15:07;8.82;;;6.05;;
8871;SDS011;4472;52.092;9.820;2022-08-25T17:17:54;15.57;;;6.45;;
8871;SDS011;4472;52.092;9.820;2022-08-25T17:20:42;19.10;;;6.60;;
8871;SDS011;4472;52.092;9.820;2022-08-25T17:23:29;11.38;;;6.90;;
8871;SDS011;4472;52.092;9.820;2022-08-25T17:26:17;15.70;;;6.35;;
8871;SDS011;4472;52.092;9.820;2022-08-25T17:29:06;12.60;;;6.80;;
8871;SDS011;4472;52.092;9.820;2022-08-25T17:31:53;15.73;;;6.25;;
8871;SDS011;4472;52.092;9.820;2022-08-25T17:34:40;15.73;;;6.18;;
8871;SDS011;4472;52.092;9.820;2022-08-25T17:37:27;11.27;;;6.35;;
8871;SDS011;4472;52.092;9.820;2022-08-25T17:40:14;14.75;;;6.32;;
8871;SDS011;4472;52.092;9.820;2022-08-25T17:43:02;10.77;;;6.07;;